Time;durP1;ratioP1;P1;durP2;ratioP2;P2;SDS_P1;SDS_P2;PMS_P1;PMS_P2;Temp;Humidity;BMP_temperature;BMP_pressure;BME280_temperature;BME280_humidity;BME280_pressure;Samples;Min_cycle;Max_cycle;Signal;HPM_P1;HPM_P2
2022/09/12 00:01:11;;;;;;;9.10;8.20;;;20.20;90.80;;;;;;4950432;29;20417;-73
2022/09/12 00:03:40;;;;;;;9.50;8.60;;;20.20;90.80;;;;;;4950328;29;20422;-73
2022/09/12 00:06:18;;;;;;;8.60;7.80;;;20.20;90.80;;;;;;4933820;29;20945;-73
2022/09/12 00:08:45;;;;;;;10.20;8.17;;;20.20;90.80;;;;;;4944232;29;20481;-73
2022/09/12 00:11:11;;;;;;;10.10;9.10;;;20.20;90.80;;;;;;4968837;28;20442;-73
2022/09/12 00:13:39;;;;;;;9.00;8.10;;;20.20;90.80;;;;;;4950317;29;20667;-73
2022/09/12 00:16:07;;;;;;;8.93;8.13;;;20.20;90.80;;;;;;4969352;28;20574;-73
2022/09/12 00:18:33;;;;;;;9.83;8.07;;;20.10;91.00;;;;;;4945508;29;20431;-73
2022/09/12 00:21:03;;;;;;;10.50;8.80;;;20.10;90.70;;;;;;4949847;29;20412;-73
2022/09/12 00:23:33;;;;;;;9.03;7.73;;;20.20;90.70;;;;;;4940976;28;20423;-73
2022/09/12 00:26:02;;;;;;;10.53;9.50;;;20.10;90.60;;;;;;4936198;29;20938;-73
2022/09/12 00:28:46;;;;;;;9.30;8.40;;;20.10;90.60;;;;;;4947451;28;20953;-73
2022/09/12 00:31:15;;;;;;;8.97;8.17;;;20.10;90.60;;;;;;4953406;29;20936;-73
2022/09/12 00:33:45;;;;;;;8.33;7.33;;;20.10;90.60;;;;;;4968753;28;20534;-73
2022/09/12 00:36:14;;;;;;;10.47;9.37;;;20.10;90.90;;;;;;4953563;28;21015;-73
2022/09/12 00:38:44;;;;;;;8.93;8.13;;;20.10;90.50;;;;;;4943975;28;20428;-73
2022/09/12 00:41:18;;;;;;;9.67;8.63;;;20.10;90.50;;;;;;4969163;28;20492;-73
2022/09/12 00:43:53;;;;;;;9.13;8.30;;;20.00;90.50;;;;;;4927626;29;20512;-73
2022/09/12 00:46:31;;;;;;;9.40;8.50;;;20.00;90.50;;;;;;4935578;29;20421;-73
2022/09/12 00:49:14;;;;;;;8.73;7.43;;;20.00;90.40;;;;;;4960597;28;20508;-73
2022/09/12 00:51:48;;;;;;;10.40;8.10;;;20.00;90.40;;;;;;4950605;29;20442;-73
2022/09/12 00:54:20;;;;;;;8.77;7.60;;;20.00;90.40;;;;;;4933714;29;20464;-73
2022/09/12 00:56:52;;;;;;;8.57;7.67;;;20.00;90.40;;;;;;4951839;29;20459;-73
2022/09/12 00:59:33;;;;;;;9.77;8.73;;;20.00;90.40;;;;;;4934118;29;20422;-73
2022/09/12 01:02:01;;;;;;;9.40;8.50;;;20.00;90.40;;;;;;4948921;29;20423;-73
2022/09/12 01:04:36;;;;;;;9.37;8.37;;;20.00;90.40;;;;;;4948642;29;20436;-73
2022/09/12 01:07:06;;;;;;;9.57;8.30;;;20.00;90.40;;;;;;4934752;29;20467;-73
2022/09/12 01:09:35;;;;;;;11.40;8.80;;;19.90;90.30;;;;;;4948220;29;20976;-73
2022/09/12 01:12:04;;;;;;;9.37;8.37;;;19.90;90.30;;;;;;4946832;29;20417;-73
2022/09/12 01:14:34;;;;;;;9.10;8.20;;;19.90;90.30;;;;;;4930526;29;20458;-73
2022/09/12 01:17:00;;;;;;;9.57;8.57;;;19.90;90.30;;;;;;4925170;28;20461;-73
2022/09/12 01:19:45;;;;;;;11.10;8.33;;;19.90;90.20;;;;;;4938481;29;20429;-73
2022/09/12 01:23:08;;;;;;;9.10;8.20;;;19.90;90.20;;;;;;4922956;29;20528;-73
2022/09/12 01:25:37;;;;;;;8.10;7.20;;;19.90;90.20;;;;;;4951577;29;20446;-73
2022/09/12 01:28:08;;;;;;;9.17;8.17;;;19.90;90.20;;;;;;4964880;28;21007;-73
2022/09/12 01:30:34;;;;;;;8.60;7.80;;;19.90;90.20;;;;;;4952071;29;20435;-73
2022/09/12 01:33:19;;;;;;;9.23;8.33;;;19.90;90.20;;;;;;4951921;28;20929;-73
2022/09/12 01:36:33;;;;;;;8.80;7.80;;;19.80;90.10;;;;;;4952399;28;20444;-73
2022/09/12 01:39:03;;;;;;;9.03;8.17;;;19.80;90.10;;;;;;4958893;28;20431;-73
2022/09/12 01:42:09;;;;;;;8.43;7.37;;;19.80;90.10;;;;;;4946009;28;20448;-73
2022/09/12 01:44:48;;;;;;;9.27;7.63;;;19.80;90.10;;;;;;4933128;29;20459;-73
2022/09/12 01:47:37;;;;;;;8.80;7.57;;;19.80;90.10;;;;;;4961813;28;20443;-73
2022/09/12 01:50:16;;;;;;;7.50;6.80;;;19.80;90.10;;;;;;4963846;28;20457;-73
2022/09/12 01:53:02;;;;;;;10.23;7.77;;;19.70;90.00;;;;;;4933991;29;20443;-73
2022/09/12 01:55:45;;;;;;;9.50;7.87;;;19.70;90.00;;;;;;4935289;29;20505;-73
2022/09/12 01:58:12;;;;;;;10.63;8.40;;;19.70;90.00;;;;;;4949171;29;20784;-73
2022/09/12 02:00:54;;;;;;;8.33;7.53;;;19.70;90.00;;;;;;4932828;29;20426;-73
2022/09/12 02:03:26;;;;;;;8.40;7.60;;;19.70;89.90;;;;;;4935488;29;20442;-73
2022/09/12 02:05:55;;;;;;;9.10;8.20;;;19.70;89.90;;;;;;4968068;28;20407;-73
2022/09/12 02:08:39;;;;;;;11.20;7.97;;;19.70;89.90;;;;;;4940281;28;20503;-73
2022/09/12 02:11:10;;;;;;;8.93;7.97;;;19.70;89.90;;;;;;4952809;28;20479;-73
2022/09/12 02:13:55;;;;;;;9.77;7.80;;;19.70;89.80;;;;;;4914579;29;20445;-73
2022/09/12 02:16:31;;;;;;;8.60;7.80;;;19.70;89.80;;;;;;4926238;29;20466;-73
2022/09/12 02:19:21;;;;;;;9.40;8.40;;;19.60;89.70;;;;;;4942173;29;20895;-73
2022/09/12 02:21:54;;;;;;;8.53;7.63;;;19.60;89.60;;;;;;4951678;29;20498;-73
2022/09/12 02:24:26;;;;;;;9.03;7.80;;;19.60;89.60;;;;;;4940738;29;20815;-73
2022/09/12 02:27:14;;;;;;;9.90;7.40;;;19.60;90.10;;;;;;4935616;29;20458;-73
2022/09/12 02:29:41;;;;;;;9.20;8.17;;;19.60;89.50;;;;;;4939403;29;20471;-73
2022/09/12 02:32:35;;;;;;;9.40;7.93;;;19.60;89.50;;;;;;4943366;29;20909;-73
2022/09/12 02:35:35;;;;;;;8.23;7.43;;;19.50;89.30;;;;;;4955254;28;20838;-73
2022/09/12 02:38:16;;;;;;;7.97;7.20;;;19.60;89.40;;;;;;4955032;28;20566;-73
2022/09/12 02:40:42;;;;;;;7.93;6.90;;;19.50;89.30;;;;;;4967727;28;20497;-73
2022/09/12 02:43:08;;;;;;;7.87;7.07;;;19.50;89.30;;;;;;4943317;28;20416;-73
2022/09/12 02:45:35;;;;;;;7.97;7.17;;;19.50;89.30;;;;;;4952036;28;20450;-73
2022/09/12 02:48:07;;;;;;;8.03;7.30;;;19.50;89.30;;;;;;4950633;29;20426;-73
2022/09/12 02:50:39;;;;;;;12.10;7.37;;;19.50;89.30;;;;;;4967165;28;20793;-73
2022/09/12 02:53:07;;;;;;;8.60;7.70;;;19.50;89.20;;;;;;4951969;29;20418;-73
2022/09/12 02:55:37;;;;;;;8.80;7.40;;;19.50;89.20;;;;;;4964435;28;20458;-73
2022/09/12 02:58:07;;;;;;;8.60;7.80;;;19.40;89.10;;;;;;4955203;29;20446;-73
2022/09/12 03:01:00;;;;;;;8.07;6.87;;;19.50;89.10;;;;;;4921550;29;20482;-73
2022/09/12 03:03:50;;;;;;;8.23;7.33;;;19.50;89.00;;;;;;4945813;29;20431;-73
2022/09/12 03:06:58;;;;;;;9.03;7.53;;;19.40;88.90;;;;;;4920404;29;20434;-73
2022/09/12 03:09:56;;;;;;;9.20;7.53;;;19.40;88.90;;;;;;4936490;29;21146;-73
2022/09/12 03:13:01;;;;;;;8.00;7.20;;;19.40;88.90;;;;;;4953603;28;20944;-73
2022/09/12 03:16:00;;;;;;;9.70;8.57;;;19.40;89.00;;;;;;4933349;29;20974;-73
2022/09/12 03:18:40;;;;;;;8.20;7.40;;;19.40;89.00;;;;;;4954809;29;20822;-73
2022/09/12 03:21:30;;;;;;;9.07;8.17;;;19.30;88.90;;;;;;4963772;28;20820;-73
2022/09/12 03:24:16;;;;;;;11.43;8.30;;;19.30;88.90;;;;;;4948406;28;20925;-73
2022/09/12 03:27:03;;;;;;;9.17;7.80;;;19.30;88.90;;;;;;4943720;29;20704;-73
2022/09/12 03:29:30;;;;;;;9.13;7.63;;;19.30;88.90;;;;;;4936420;29;20450;-73
2022/09/12 03:31:57;;;;;;;8.90;7.80;;;19.30;88.90;;;;;;4963772;28;20425;-73
2022/09/12 03:34:25;;;;;;;8.33;7.17;;;19.30;88.90;;;;;;4955207;28;20430;-73
2022/09/12 03:36:54;;;;;;;7.70;6.90;;;19.30;88.80;;;;;;4953731;29;20882;-73
2022/09/12 03:39:23;;;;;;;9.77;8.23;;;19.30;88.80;;;;;;4946112;29;20438;-73
2022/09/12 03:41:53;;;;;;;9.67;6.70;;;19.30;88.80;;;;;;4945861;29;20418;-73
2022/09/12 03:44:24;;;;;;;8.60;7.30;;;19.30;88.80;;;;;;4943886;28;20459;-73
2022/09/12 03:46:52;;;;;;;9.87;7.37;;;19.30;88.70;;;;;;4940155;29;20508;-73
2022/09/12 03:49:22;;;;;;;8.57;7.10;;;19.30;88.60;;;;;;4954365;29;20426;-73
2022/09/12 03:51:48;;;;;;;9.93;8.27;;;19.20;88.50;;;;;;4958728;28;20931;-73
2022/09/12 03:54:14;;;;;;;8.70;7.73;;;19.20;88.40;;;;;;4934835;29;20466;-73
2022/09/12 03:56:40;;;;;;;8.63;7.73;;;19.20;88.40;;;;;;4954097;29;20458;-73
2022/09/12 03:59:07;;;;;;;9.60;7.10;;;19.20;88.40;;;;;;4945679;29;20176;-73
2022/09/12 04:01:36;;;;;;;9.67;7.47;;;19.20;88.40;;;;;;4943548;29;20459;-73
2022/09/12 04:04:02;;;;;;;8.33;6.83;;;19.20;88.40;;;;;;4946529;29;21016;-73
2022/09/12 04:06:31;;;;;;;8.80;6.87;;;19.20;88.40;;;;;;4950676;29;20410;-73
2022/09/12 04:08:59;;;;;;;8.53;7.67;;;19.20;88.30;;;;;;4941244;29;20470;-73
2022/09/12 04:11:25;;;;;;;8.70;7.37;;;19.20;88.30;;;;;;4944336;29;20455;-73
2022/09/12 04:13:51;;;;;;;8.93;7.90;;;19.20;88.30;;;;;;4954621;28;20525;-73
2022/09/12 04:16:20;;;;;;;7.93;7.17;;;19.20;88.30;;;;;;4952451;28;20460;-73
2022/09/12 04:18:50;;;;;;;11.70;7.67;;;19.20;88.30;;;;;;4949852;29;20910;-73
2022/09/12 04:21:21;;;;;;;8.97;7.40;;;19.10;88.20;;;;;;4934351;29;20448;-73
2022/09/12 04:23:47;;;;;;;8.50;7.67;;;19.10;88.20;;;;;;4934466;29;20571;-73
2022/09/12 04:26:16;;;;;;;8.40;7.10;;;19.10;88.10;;;;;;4934550;29;20458;-74
2022/09/12 04:28:46;;;;;;;7.70;6.80;;;19.10;88.20;;;;;;4949736;29;20439;-75
2022/09/12 04:31:16;;;;;;;8.93;7.50;;;19.10;88.10;;;;;;5037734;23;20549;-74
2022/09/12 04:33:43;;;;;;;8.13;7.33;;;19.10;88.10;;;;;;4967218;28;20448;-71
2022/09/12 04:36:16;;;;;;;8.50;7.60;;;19.10;88.10;;;;;;4961613;28;20460;-71
2022/09/12 04:38:44;;;;;;;7.37;6.67;;;19.10;88.10;;;;;;4943806;28;20472;-72
2022/09/12 04:41:19;;;;;;;7.90;7.20;;;19.10;88.10;;;;;;4991925;28;20429;-71
2022/09/12 04:43:47;;;;;;;10.40;7.40;;;19.00;88.00;;;;;;4975843;28;20490;-71
2022/09/12 04:46:19;;;;;;;7.93;7.13;;;19.00;88.00;;;;;;4975846;28;20857;-72
2022/09/12 04:48:48;;;;;;;9.17;7.47;;;19.00;88.00;;;;;;4993687;28;20445;-71
2022/09/12 04:51:16;;;;;;;8.20;7.07;;;19.00;88.00;;;;;;4975745;28;20525;-71
2022/09/12 04:53:48;;;;;;;7.37;6.43;;;19.00;88.00;;;;;;4976032;28;20414;-71
2022/09/12 04:56:14;;;;;;;7.90;7.10;;;19.00;88.00;;;;;;4953979;28;20620;-72
2022/09/12 04:58:43;;;;;;;10.00;6.90;;;19.00;88.00;;;;;;4976959;28;20573;-71
2022/09/12 05:01:14;;;;;;;8.17;7.37;;;19.00;88.00;;;;;;4969650;28;20429;-71
2022/09/12 05:03:44;;;;;;;7.40;6.70;;;19.00;88.10;;;;;;4975859;28;20442;-71
2022/09/12 05:06:16;;;;;;;7.53;6.77;;;18.90;88.00;;;;;;4993060;28;20441;-71
2022/09/12 05:08:45;;;;;;;8.20;7.10;;;18.90;88.00;;;;;;4973552;28;20397;-71
2022/09/12 05:11:19;;;;;;;7.93;6.33;;;18.90;88.00;;;;;;4947486;28;20421;-71
2022/09/12 05:13:50;;;;;;;7.97;6.97;;;18.90;88.00;;;;;;4988092;28;20550;-72
2022/09/12 05:16:17;;;;;;;7.50;6.80;;;18.90;88.10;;;;;;4975465;28;20444;-74
2022/09/12 05:18:50;;;;;;;7.33;6.60;;;18.90;88.20;;;;;;4972334;28;20453;-71
2022/09/12 05:21:19;;;;;;;7.90;7.10;;;18.90;88.20;;;;;;4947578;28;20449;-71
2022/09/12 05:23:49;;;;;;;7.23;6.53;;;18.90;88.20;;;;;;4950705;28;20445;-71
2022/09/12 05:26:21;;;;;;;7.73;7.03;;;18.90;88.20;;;;;;4956470;28;20771;-71
2022/09/12 05:28:49;;;;;;;7.87;6.97;;;18.90;88.30;;;;;;4981220;28;20524;-71
2022/09/12 05:31:23;;;;;;;7.47;6.77;;;18.90;88.30;;;;;;4982757;28;20867;-71
2022/09/12 05:33:50;;;;;;;7.97;6.53;;;18.90;88.40;;;;;;4967155;28;20468;-71
2022/09/12 05:36:20;;;;;;;7.93;6.97;;;18.90;88.50;;;;;;4930188;28;20813;-71
2022/09/12 05:38:49;;;;;;;6.90;6.30;;;18.80;88.40;;;;;;4939073;28;20421;-71
2022/09/12 05:41:25;;;;;;;9.20;7.17;;;18.80;88.50;;;;;;4950066;28;20811;-71
2022/09/12 05:44:13;;;;;;;9.30;7.53;;;18.80;88.50;;;;;;4992887;28;20443;-70
2022/09/12 05:46:44;;;;;;;7.33;6.60;;;18.80;88.60;;;;;;4974466;28;20460;-70
2022/09/12 05:49:14;;;;;;;7.13;6.43;;;18.80;88.60;;;;;;4991839;28;20431;-71
2022/09/12 05:51:43;;;;;;;7.63;6.80;;;18.80;88.80;;;;;;4955213;28;20423;-71
2022/09/12 05:54:11;;;;;;;9.00;7.03;;;18.80;88.80;;;;;;4956030;28;20540;-71
2022/09/12 05:56:50;;;;;;;7.10;6.40;;;18.80;88.90;;;;;;4975900;28;20460;-71
2022/09/12 05:59:22;;;;;;;6.97;6.27;;;18.80;88.90;;;;;;4985577;28;20437;-71
2022/09/12 06:01:51;;;;;;;7.47;6.50;;;18.80;89.00;;;;;;4985063;28;20427;-71
2022/09/12 06:04:20;;;;;;;6.90;6.20;;;18.80;89.10;;;;;;4961249;28;20865;-71
2022/09/12 06:06:47;;;;;;;7.10;6.40;;;18.80;89.20;;;;;;4979393;28;20525;-71
2022/09/12 06:09:15;;;;;;;7.47;6.87;;;18.80;89.30;;;;;;4994605;28;20953;-71
2022/09/12 06:11:44;;;;;;;7.13;6.40;;;18.80;89.40;;;;;;4978936;28;20812;-71
2022/09/12 06:14:15;;;;;;;7.00;5.80;;;18.80;89.40;;;;;;4975031;28;20462;-71
2022/09/12 06:16:41;;;;;;;7.17;6.47;;;18.80;89.50;;;;;;4995764;28;20515;-71
2022/09/12 06:19:13;;;;;;;7.90;7.10;;;18.80;89.50;;;;;;4957830;28;20531;-71
2022/09/12 06:21:42;;;;;;;6.60;6.00;;;18.80;89.60;;;;;;4976752;28;20432;-71
2022/09/12 06:24:33;;;;;;;7.67;6.90;;;18.80;89.60;;;;;;4916415;29;20447;-71
2022/09/12 06:27:01;;;;;;;8.77;6.87;;;18.80;89.70;;;;;;4937170;28;20447;-71
2022/09/12 06:29:28;;;;;;;9.50;6.67;;;18.80;89.80;;;;;;4950986;28;20445;-71
2022/09/12 06:31:54;;;;;;;6.60;6.00;;;18.80;89.80;;;;;;4986718;28;20854;-71
2022/09/12 06:34:22;;;;;;;7.57;6.00;;;18.80;89.90;;;;;;4995115;28;20956;-71
2022/09/12 06:36:53;;;;;;;6.30;5.70;;;18.80;89.90;;;;;;4967677;28;21169;-71
2022/09/12 06:39:21;;;;;;;8.03;6.40;;;18.80;90.00;;;;;;4960517;28;20460;-71
2022/09/12 06:41:51;;;;;;;6.30;5.70;;;18.80;90.00;;;;;;4959268;28;20664;-71
2022/09/12 06:44:21;;;;;;;8.23;6.60;;;18.80;90.00;;;;;;4973763;28;20440;-71
2022/09/12 06:46:48;;;;;;;7.93;5.57;;;18.80;90.10;;;;;;4943205;28;20725;-71
2022/09/12 06:49:16;;;;;;;6.30;5.10;;;18.80;90.10;;;;;;4964671;28;20454;-71
2022/09/12 06:51:43;;;;;;;6.60;6.00;;;18.80;90.10;;;;;;4962482;28;20456;-71
2022/09/12 06:54:12;;;;;;;6.97;6.27;;;18.80;90.10;;;;;;4987944;28;20981;-71
2022/09/12 06:56:43;;;;;;;6.73;6.03;;;18.80;90.20;;;;;;4978284;28;20456;-71
2022/09/12 06:59:12;;;;;;;8.07;6.40;;;18.80;90.20;;;;;;4977868;28;20472;-71
2022/09/12 07:01:38;;;;;;;7.27;6.27;;;18.80;90.30;;;;;;4977566;28;20787;-71
2022/09/12 07:04:04;;;;;;;6.37;5.70;;;18.80;90.30;;;;;;4972722;28;20444;-71
2022/09/12 07:06:38;;;;;;;6.90;6.30;;;18.80;90.30;;;;;;4976135;28;20407;-71
2022/09/12 07:09:12;;;;;;;7.00;6.30;;;18.80;90.30;;;;;;4972924;28;20457;-71
2022/09/12 07:11:40;;;;;;;7.13;5.53;;;18.80;90.30;;;;;;4967397;28;20768;-71
2022/09/12 07:14:08;;;;;;;6.00;5.47;;;18.80;90.40;;;;;;4958611;28;20556;-70
2022/09/12 07:16:37;;;;;;;6.40;5.80;;;18.80;90.40;;;;;;4948967;28;20457;-71
2022/09/12 07:19:07;;;;;;;5.90;5.30;;;18.80;90.40;;;;;;4976661;28;20435;-71
2022/09/12 07:21:38;;;;;;;7.67;5.87;;;18.80;90.50;;;;;;4995892;28;20457;-70
2022/09/12 07:24:05;;;;;;;6.77;6.07;;;18.80;90.60;;;;;;4959542;28;20449;-71
2022/09/12 07:26:33;;;;;;;6.33;5.73;;;18.80;90.50;;;;;;4977289;28;20425;-71
2022/09/12 07:29:02;;;;;;;6.00;5.40;;;18.80;90.60;;;;;;4961406;28;20428;-71
2022/09/12 07:31:30;;;;;;;7.20;5.77;;;18.80;90.60;;;;;;4983534;28;20879;-70
2022/09/12 07:33:56;;;;;;;7.23;5.97;;;18.80;90.60;;;;;;4977558;28;20491;-71
2022/09/12 07:36:25;;;;;;;7.07;5.97;;;18.80;90.60;;;;;;4958282;28;20527;-71
2022/09/12 07:38:58;;;;;;;7.10;5.40;;;18.80;91.00;;;;;;4973752;28;20966;-71
2022/09/12 07:41:28;;;;;;;8.17;5.80;;;18.80;90.60;;;;;;4952820;28;20812;-71
2022/09/12 07:43:59;;;;;;;5.87;5.37;;;18.80;90.60;;;;;;4944572;28;20454;-71
2022/09/12 07:46:26;;;;;;;6.47;5.87;;;18.80;90.60;;;;;;4960606;28;20547;-71
2022/09/12 07:48:54;;;;;;;6.17;5.57;;;18.80;90.60;;;;;;4975166;28;20441;-71
2022/09/12 07:51:26;;;;;;;8.00;6.13;;;18.80;90.70;;;;;;4990480;28;20439;-71
2022/09/12 07:53:53;;;;;;;6.37;5.60;;;18.80;90.70;;;;;;4975231;28;20448;-71
2022/09/12 07:56:22;;;;;;;6.47;5.77;;;18.80;90.80;;;;;;4955216;28;20473;-71
2022/09/12 07:58:55;;;;;;;8.40;6.00;;;18.80;90.80;;;;;;4957122;28;20439;-71
2022/09/12 08:01:24;;;;;;;6.33;5.70;;;18.80;90.90;;;;;;4965530;28;20447;-71
2022/09/12 08:04:01;;;;;;;5.90;5.40;;;18.80;90.90;;;;;;4993417;28;20448;-71
2022/09/12 08:06:31;;;;;;;7.50;5.50;;;18.80;90.90;;;;;;4993475;28;20906;-71
2022/09/12 08:08:59;;;;;;;6.50;5.90;;;18.80;90.90;;;;;;4975034;28;20450;-71
2022/09/12 08:11:28;;;;;;;8.27;6.20;;;18.80;90.90;;;;;;4969388;28;20492;-71
2022/09/12 08:13:56;;;;;;;7.07;6.20;;;18.80;90.90;;;;;;4970332;28;20470;-71
2022/09/12 08:16:27;;;;;;;6.43;5.80;;;18.80;90.80;;;;;;4993520;28;20987;-71
2022/09/12 08:18:53;;;;;;;6.20;5.57;;;18.90;90.80;;;;;;4959679;28;20945;-71
2022/09/12 08:21:22;;;;;;;6.67;5.33;;;18.90;90.90;;;;;;4959462;28;20441;-71
2022/09/12 08:23:56;;;;;;;8.83;6.90;;;18.90;90.90;;;;;;4983754;28;20446;-71
2022/09/12 08:26:22;;;;;;;7.20;6.07;;;18.90;90.90;;;;;;4976030;28;20467;-70
2022/09/12 08:28:49;;;;;;;7.07;6.37;;;18.90;90.90;;;;;;4954582;28;20615;-71
2022/09/12 08:31:17;;;;;;;6.83;6.13;;;18.80;90.90;;;;;;4975585;28;21095;-71
2022/09/12 08:33:45;;;;;;;6.70;6.10;;;18.90;90.90;;;;;;4993149;28;20481;-71
2022/09/12 08:36:19;;;;;;;8.27;6.23;;;18.90;91.00;;;;;;4974615;28;20459;-71
2022/09/12 08:38:49;;;;;;;8.77;6.07;;;18.90;91.00;;;;;;4980101;28;20456;-71
2022/09/12 08:41:41;;;;;;;6.97;6.27;;;18.90;91.00;;;;;;4954879;28;20453;-71
2022/09/12 08:44:32;;;;;;;7.50;6.10;;;18.90;91.10;;;;;;4964460;28;20589;-71
2022/09/12 08:47:09;;;;;;;7.13;6.03;;;18.90;91.10;;;;;;4941236;28;20456;-71
2022/09/12 08:49:40;;;;;;;7.33;6.53;;;18.90;91.30;;;;;;4948867;28;20538;-71
2022/09/12 08:52:20;;;;;;;8.13;6.80;;;18.90;91.40;;;;;;4970320;28;20444;-71
2022/09/12 08:54:51;;;;;;;7.50;6.50;;;18.90;91.80;;;;;;4991863;28;20448;-71
2022/09/12 08:57:19;;;;;;;8.40;7.17;;;18.90;91.40;;;;;;4975204;28;20472;-71
2022/09/12 08:59:47;;;;;;;7.60;6.90;;;18.90;91.50;;;;;;4983645;28;20785;-71
2022/09/12 09:03:01;;;;;;;7.10;5.87;;;18.90;91.60;;;;;;4952400;28;20421;-71
2022/09/12 09:05:47;;;;;;;8.67;6.60;;;19.00;91.70;;;;;;4984497;28;20456;-71
2022/09/12 09:08:34;;;;;;;7.60;6.53;;;19.00;91.70;;;;;;4991851;28;20548;-71
2022/09/12 09:11:02;;;;;;;7.20;6.50;;;19.00;91.70;;;;;;4969396;28;20949;-71
2022/09/12 09:16:43;;;;;;;7.90;5.50;;;19.00;91.60;;;;;;4958327;28;20624;-71
2022/09/12 09:19:31;;;;;;;6.40;5.67;;;19.00;91.60;;;;;;4971902;28;20429;-71
2022/09/12 09:22:02;;;;;;;6.53;5.70;;;19.00;91.80;;;;;;4972502;28;20467;-71
2022/09/12 09:24:42;;;;;;;10.27;6.50;;;19.00;91.80;;;;;;4957780;28;20460;-71
2022/09/12 09:27:24;;;;;;;6.87;6.03;;;19.10;91.90;;;;;;4990459;28;20950;-71
2022/09/12 09:29:56;;;;;;;6.60;5.67;;;19.10;91.90;;;;;;4962876;28;20428;-71
2022/09/12 09:32:34;;;;;;;7.30;6.60;;;19.10;92.00;;;;;;4972039;28;20535;-71
2022/09/12 09:35:11;;;;;;;6.60;5.80;;;19.20;92.00;;;;;;4983597;28;20996;-71
2022/09/12 09:37:45;;;;;;;8.23;6.43;;;19.10;92.10;;;;;;4961209;28;20582;-71
2022/09/12 09:40:28;;;;;;;8.07;6.27;;;19.20;92.20;;;;;;4973396;28;20436;-71
2022/09/12 09:42:57;;;;;;;6.70;5.57;;;19.20;92.10;;;;;;4986037;28;20467;-71
2022/09/12 09:45:26;;;;;;;5.63;5.10;;;19.20;92.10;;;;;;4970690;28;20503;-71
2022/09/12 09:48:06;;;;;;;7.17;5.83;;;19.30;92.10;;;;;;4988294;28;20486;-70
2022/09/12 09:50:37;;;;;;;6.77;6.10;;;19.30;92.20;;;;;;4960148;28;20429;-70
2022/09/12 09:53:21;;;;;;;7.03;6.33;;;19.30;92.40;;;;;;4969637;28;20938;-69
2022/09/12 09:55:48;;;;;;;9.13;6.73;;;19.40;92.50;;;;;;4972003;28;20457;-70
2022/09/12 09:58:34;;;;;;;9.03;6.87;;;19.40;92.60;;;;;;4993293;28;20463;-70
2022/09/12 10:01:14;;;;;;;9.53;7.13;;;19.40;92.60;;;;;;4957764;28;20428;-70
2022/09/12 10:03:53;;;;;;;6.60;6.00;;;19.50;92.70;;;;;;4958050;28;20421;-70
2022/09/12 10:06:22;;;;;;;9.93;6.90;;;19.50;92.60;;;;;;4974579;28;20757;-70
2022/09/12 10:08:51;;;;;;;7.70;6.37;;;19.50;92.60;;;;;;4991029;28;20921;-72
2022/09/12 10:11:27;;;;;;;6.93;5.93;;;19.60;93.10;;;;;;4950998;28;20816;-71
2022/09/12 10:13:56;;;;;;;8.00;6.33;;;19.70;93.60;;;;;;4989669;28;20503;-71
2022/09/12 10:16:26;;;;;;;7.37;6.47;;;19.70;93.60;;;;;;4958612;28;20901;-71
2022/09/12 10:18:57;;;;;;;6.97;6.00;;;19.70;93.40;;;;;;4949551;28;20500;-71
2022/09/12 10:21:40;;;;;;;8.30;6.63;;;19.80;93.20;;;;;;4967369;28;20540;-71
2022/09/12 10:24:20;;;;;;;7.70;6.03;;;19.80;93.00;;;;;;4958326;28;20453;-71
2022/09/12 10:27:10;;;;;;;9.00;6.77;;;19.80;92.90;;;;;;4962719;28;20441;-71
2022/09/12 10:29:59;;;;;;;6.83;6.03;;;19.90;92.90;;;;;;4956988;28;20559;-71
2022/09/12 10:32:42;;;;;;;7.13;6.20;;;19.90;92.80;;;;;;4957699;28;20484;-71
2022/09/12 10:35:17;;;;;;;6.17;5.57;;;19.90;92.70;;;;;;4966583;28;20545;-71
2022/09/12 10:37:52;;;;;;;6.50;5.90;;;20.00;92.70;;;;;;4978558;28;20892;-71
2022/09/12 10:40:27;;;;;;;6.47;5.40;;;20.00;92.60;;;;;;4958458;28;20794;-71
2022/09/12 10:42:59;;;;;;;7.00;6.03;;;20.00;92.70;;;;;;4935186;28;20445;-71
2022/09/12 10:45:29;;;;;;;6.30;5.70;;;20.10;92.60;;;;;;4992871;28;20437;-71
2022/09/12 10:48:02;;;;;;;7.57;5.90;;;20.10;92.60;;;;;;4978804;28;20454;-71
2022/09/12 10:50:41;;;;;;;7.00;6.00;;;20.10;92.50;;;;;;4958421;28;20966;-71
2022/09/12 10:53:19;;;;;;;7.47;5.83;;;20.20;92.60;;;;;;4965622;28;20452;-72
2022/09/12 10:56:11;;;;;;;6.40;5.80;;;20.30;92.60;;;;;;4994748;28;20506;-72
2022/09/12 10:58:54;;;;;;;6.30;5.50;;;20.30;92.30;;;;;;4977436;28;20433;-74
2022/09/12 11:01:32;;;;;;;6.97;5.20;;;20.40;92.20;;;;;;4961856;28;20456;-75
2022/09/12 11:04:22;;;;;;;6.40;5.23;;;20.50;92.10;;;;;;4992162;28;20447;-75
2022/09/12 11:07:06;;;;;;;7.63;5.60;;;20.50;91.90;;;;;;4960649;28;20453;-74
2022/09/12 11:09:41;;;;;;;5.03;4.53;;;20.60;91.80;;;;;;4994692;28;20512;-71
2022/09/12 11:12:10;;;;;;;5.70;5.20;;;20.60;91.70;;;;;;4956966;28;20448;-72
2022/09/12 11:14:38;;;;;;;5.40;4.67;;;20.60;91.60;;;;;;4963002;28;20883;-72
2022/09/12 11:17:18;;;;;;;5.60;4.97;;;20.70;91.60;;;;;;4983496;28;20462;-72
2022/09/12 11:20:09;;;;;;;5.63;5.13;;;20.70;91.50;;;;;;4942367;28;20441;-72
2022/09/12 11:23:28;;;;;;;4.80;4.40;;;20.70;91.40;;;;;;4962316;28;20944;-72
2022/09/12 11:25:59;;;;;;;5.43;4.93;;;20.80;91.40;;;;;;4958540;28;20493;-72
2022/09/12 11:28:48;;;;;;;5.17;4.77;;;20.80;91.40;;;;;;4959188;28;20945;-72
2022/09/12 11:31:33;;;;;;;4.80;4.40;;;20.90;91.40;;;;;;4963645;28;20905;-71
2022/09/12 11:34:08;;;;;;;7.60;5.00;;;20.80;91.30;;;;;;4973830;28;20442;-72
2022/09/12 11:37:02;;;;;;;4.73;4.33;;;20.90;91.30;;;;;;4977941;28;20461;-72
2022/09/12 11:39:39;;;;;;;5.23;4.70;;;20.90;91.20;;;;;;4990928;28;20799;-72
2022/09/12 11:42:18;;;;;;;5.60;4.67;;;21.00;91.10;;;;;;4990537;28;20438;-72
2022/09/12 11:45:04;;;;;;;5.17;4.77;;;21.00;91.10;;;;;;4974443;28;20589;-72
2022/09/12 11:47:34;;;;;;;5.37;4.97;;;21.10;91.10;;;;;;4956144;28;20424;-72
2022/09/12 11:50:04;;;;;;;5.23;4.60;;;21.10;91.10;;;;;;4981602;28;20444;-72
2022/09/12 11:52:37;;;;;;;5.10;4.70;;;21.10;91.00;;;;;;4982385;28;20498;-72
2022/09/12 11:55:13;;;;;;;4.70;4.20;;;21.20;91.10;;;;;;4967107;28;20868;-72
2022/09/12 11:57:52;;;;;;;4.97;4.53;;;21.20;91.00;;;;;;4990374;28;20475;-72
2022/09/12 12:00:49;;;;;;;4.50;4.10;;;21.20;90.90;;;;;;4974115;28;20442;-72
2022/09/12 12:03:40;;;;;;;5.20;4.70;;;21.20;90.80;;;;;;4950226;28;20510;-72
2022/09/12 12:06:18;;;;;;;4.50;4.10;;;21.30;90.70;;;;;;4948026;28;20818;-72
2022/09/12 12:08:49;;;;;;;4.30;3.90;;;21.30;90.50;;;;;;4980427;28;20476;-72
2022/09/12 12:11:30;;;;;;;5.03;4.57;;;21.30;90.40;;;;;;4970783;28;20431;-72
2022/09/12 12:14:21;;;;;;;4.10;3.80;;;21.30;90.30;;;;;;4968127;28;20508;-72
2022/09/12 12:16:48;;;;;;;4.13;3.80;;;21.40;90.40;;;;;;4965637;28;20464;-72
2022/09/12 12:19:39;;;;;;;4.50;4.10;;;21.40;90.30;;;;;;4941385;28;20459;-72
2022/09/12 12:22:20;;;;;;;4.83;4.43;;;21.40;90.20;;;;;;4971782;28;20516;-72
2022/09/12 12:25:16;;;;;;;5.60;5.10;;;21.50;90.20;;;;;;4974743;28;20479;-72
2022/09/12 12:28:00;;;;;;;4.13;3.40;;;21.50;90.00;;;;;;4938486;28;20441;-72
2022/09/12 12:30:29;;;;;;;4.80;4.40;;;21.60;89.90;;;;;;4960899;28;20462;-72
2022/09/12 12:33:09;;;;;;;4.30;4.00;;;21.60;89.70;;;;;;4954173;28;20437;-72
2022/09/12 12:35:40;;;;;;;4.20;3.90;;;21.60;89.20;;;;;;4991095;28;20456;-72
2022/09/12 12:38:28;;;;;;;5.67;4.10;;;21.60;89.20;;;;;;4992526;28;20487;-72
2022/09/12 12:41:17;;;;;;;4.20;3.80;;;21.70;89.10;;;;;;5047027;23;20501;-73
2022/09/12 12:43:51;;;;;;;4.40;4.00;;;21.70;89.00;;;;;;4990175;28;20416;-73
2022/09/12 12:46:28;;;;;;;3.70;3.40;;;21.70;88.90;;;;;;4957797;28;20926;-71
2022/09/12 12:48:59;;;;;;;4.00;3.60;;;21.80;88.90;;;;;;4973978;28;20910;-71
2022/09/12 12:51:26;;;;;;;4.63;4.23;;;21.80;88.90;;;;;;4973849;28;20401;-71
2022/09/12 12:53:54;;;;;;;4.33;4.03;;;21.80;88.80;;;;;;4973477;28;20483;-71
2022/09/12 12:56:40;;;;;;;4.53;4.17;;;21.90;88.60;;;;;;4973505;28;20453;-71
2022/09/12 12:59:21;;;;;;;4.30;3.90;;;21.90;88.10;;;;;;4957883;28;20449;-71
2022/09/12 13:01:54;;;;;;;4.50;4.10;;;21.90;87.90;;;;;;4953970;29;20530;-71
2022/09/12 13:04:26;;;;;;;4.60;4.20;;;22.00;87.90;;;;;;4959052;28;20505;-71
2022/09/12 13:07:13;;;;;;;4.67;4.27;;;22.00;87.80;;;;;;4954197;28;20672;-71
2022/09/12 13:09:46;;;;;;;4.63;4.23;;;22.00;87.60;;;;;;4952653;29;20429;-71
2022/09/12 13:12:34;;;;;;;4.43;4.13;;;22.10;87.40;;;;;;4970949;28;20459;-71
2022/09/12 13:15:06;;;;;;;4.23;3.83;;;22.10;86.90;;;;;;4990986;28;20503;-71
2022/09/12 13:17:45;;;;;;;4.37;3.97;;;22.10;86.90;;;;;;4968475;28;20466;-71
2022/09/12 13:20:11;;;;;;;5.27;4.63;;;22.10;86.90;;;;;;4972593;28;20455;-74
2022/09/12 13:22:49;;;;;;;4.80;4.27;;;22.20;87.00;;;;;;4955811;28;21117;-70
2022/09/12 13:25:29;;;;;;;4.13;3.73;;;22.20;86.70;;;;;;4959345;28;20451;-71
2022/09/12 13:28:02;;;;;;;4.40;4.10;;;22.20;86.50;;;;;;4953407;28;20498;-69